Time;durP1;ratioP1;P1;durP2;ratioP2;P2;SDS_P1;SDS_P2;PMS_P1;PMS_P2;Temp;Humidity;BMP_temperature;BMP_pressure;BME280_temperature;BME280_humidity;BME280_pressure;Samples;Min_cycle;Max_cycle;Signal;HPM_P1;HPM_P2
2022/06/22 00:02:07;;;;;;;4.35;0.13;;;;;;;14.35;100.00;98044.80;1659389;84;21138;-53
2022/06/22 00:04:48;;;;;;;0.30;0.10;;;;;;;14.35;100.00;98038.52;1664643;84;22346;-53
2022/06/22 00:07:29;;;;;;;0.30;0.10;;;;;;;14.34;100.00;98029.55;1663265;84;21529;-52
2022/06/22 00:10:08;;;;;;;0.10;0.10;;;;;;;14.31;100.00;98018.13;1661867;84;21063;-53
2022/06/22 00:12:35;;;;;;;0.42;0.10;;;;;;;14.31;100.00;98018.13;1635015;84;21544;-52
2022/06/22 00:15:03;;;;;;;0.37;0.08;;;;;;;14.30;100.00;98009.65;1659551;84;21178;-53
2022/06/22 00:17:38;;;;;;;2.37;0.10;;;;;;;14.29;100.00;98007.44;1661499;84;21103;-53
2022/06/22 00:20:24;;;;;;;0.42;0.10;;;;;;;14.27;100.00;98004.05;1663834;84;20952;-53
2022/06/22 00:23:00;;;;;;;0.30;0.10;;;;;;;14.24;100.00;98003.45;1651445;84;21947;-53
2022/06/22 00:25:36;;;;;;;0.20;0.10;;;;;;;14.18;100.00;97995.90;1617491;85;21006;-54
2022/06/22 00:28:33;;;;;;;2.05;0.10;;;;;;;14.11;100.00;97990.69;1636271;85;21084;-53
2022/06/22 00:31:13;;;;;;;0.37;0.10;;;;;;;14.08;100.00;97993.16;1615763;85;21566;-53
2022/06/22 00:34:00;;;;;;;8.98;0.17;;;;;;;14.06;100.00;98000.55;1638383;85;20938;-53
2022/06/22 00:36:26;;;;;;;1.32;0.00;;;;;;;14.01;100.00;97987.45;1641186;85;20958;-53
2022/06/22 00:38:53;;;;;;;0.30;0.10;;;;;;;13.97;100.00;97986.00;1641589;85;20993;-53
2022/06/22 00:41:24;;;;;;;0.90;0.10;;;;;;;13.92;100.00;97978.81;1639502;85;21492;-54
2022/06/22 00:43:51;;;;;;;0.10;0.10;;;;;;;13.89;100.00;97983.63;1636527;85;21566;-54
2022/06/22 00:46:21;;;;;;;0.05;0.00;;;;;;;13.87;100.00;97985.61;1639601;85;21016;-52
2022/06/22 00:48:51;;;;;;;0.10;0.10;;;;;;;13.84;100.00;97977.30;1637911;85;20940;-53
2022/06/22 00:51:24;;;;;;;0.35;0.10;;;;;;;13.80;100.00;97974.98;1641524;85;21045;-53
2022/06/22 00:53:59;;;;;;;0.10;0.00;;;;;;;13.78;100.00;97981.87;1639243;85;21669;-53
2022/06/22 00:56:52;;;;;;;0.30;0.00;;;;;;;13.77;100.00;97970.73;1635516;85;21040;-53
2022/06/22 00:59:46;;;;;;;1.55;0.00;;;;;;;13.77;100.00;97969.88;1582045;88;21137;-52
2022/06/22 01:02:48;;;;;;;0.50;0.03;;;;;;;13.75;100.00;97962.38;1640394;85;21594;-53
2022/06/22 01:05:41;;;;;;;0.10;0.00;;;;;;;13.73;100.00;97951.70;1598997;85;21043;-53
2022/06/22 01:08:34;;;;;;;0.10;0.00;;;;;;;13.74;100.00;97955.26;1637973;85;21537;-52
2022/06/22 01:14:12;;;;;;;0.00;0.00;;;;;;;13.74;100.00;97957.97;1637285;85;21141;-52
2022/06/22 01:16:41;;;;;;;0.05;0.03;;;;;;;13.74;100.00;97950.71;1634557;85;21080;-53
2022/06/22 01:19:25;;;;;;;1.37;0.00;;;;;;;13.75;100.00;97948.38;1639363;85;21068;-50
2022/06/22 01:22:21;;;;;;;0.10;0.00;;;;;;;13.73;100.00;97941.38;1638343;85;20999;-50
2022/06/22 01:25:32;;;;;;;0.10;0.00;;;;;;;13.70;100.00;97947.05;1636362;85;21511;-49
2022/06/22 01:28:00;;;;;;;0.00;0.00;;;;;;;13.66;100.00;97933.46;1640896;85;21371;-52
2022/06/22 01:30:35;;;;;;;0.10;0.00;;;;;;;13.63;100.00;97933.23;1636037;85;21054;-49
2022/06/22 01:33:07;;;;;;;1.37;0.10;;;;;;;13.61;100.00;97929.30;1618776;85;21678;-51
2022/06/22 01:35:37;;;;;;;3.17;0.00;;;;;;;13.61;100.00;97931.16;1635450;85;21079;-47
2022/06/22 01:38:16;;;;;;;0.78;0.00;;;;;;;13.56;100.00;97922.12;1642277;85;21154;-47
2022/06/22 01:40:50;;;;;;;4.95;0.00;;;;;;;13.54;100.00;97920.53;1637638;85;21076;-47
2022/06/22 01:43:31;;;;;;;0.20;0.00;;;;;;;13.52;100.00;97920.70;1637778;85;21129;-52
2022/06/22 01:46:06;;;;;;;0.00;0.00;;;;;;;13.50;100.00;97921.32;1639130;85;21427;-46
2022/06/22 01:48:43;;;;;;;0.23;0.03;;;;;;;13.52;100.00;97926.10;1641935;85;21604;-52
2022/06/22 01:51:24;;;;;;;0.80;0.10;;;;;;;13.56;100.00;97922.61;1572438;88;21944;-47
2022/06/22 01:54:08;;;;;;;0.17;0.05;;;;;;;13.57;100.00;97926.53;1639248;85;21033;-50
2022/06/22 01:56:57;;;;;;;0.05;0.05;;;;;;;13.59;100.00;97921.86;1636031;85;21121;-53
2022/06/22 01:59:44;;;;;;;0.10;0.00;;;;;;;13.60;100.00;97918.16;1637576;85;21080;-51
2022/06/22 02:02:26;;;;;;;0.17;0.10;;;;;;;13.63;100.00;97914.30;1636740;85;21507;-50
2022/06/22 02:05:13;;;;;;;0.42;0.00;;;;;;;13.63;100.00;97917.87;1635582;85;22453;-52
2022/06/22 02:07:44;;;;;;;0.35;0.10;;;;;;;13.65;100.00;97919.09;1636226;85;21125;-51
2022/06/22 02:10:32;;;;;;;0.00;0.00;;;;;;;13.65;100.00;97927.20;1642162;85;21646;-48
2022/06/22 02:13:28;;;;;;;0.30;0.10;;;;;;;13.65;100.00;97923.14;1639627;85;22235;-49
2022/06/22 02:16:18;;;;;;;0.78;0.10;;;;;;;13.64;100.00;97922.78;1637547;85;21104;-52
2022/06/22 02:18:59;;;;;;;1.10;0.00;;;;;;;13.63;100.00;97912.46;1643039;85;21611;-48
2022/06/22 02:21:49;;;;;;;0.23;0.00;;;;;;;13.64;100.00;97913.31;1635319;85;21468;-51
2022/06/22 02:24:28;;;;;;;0.15;0.00;;;;;;;13.67;100.00;97913.05;1637943;85;21539;-53
2022/06/22 02:27:07;;;;;;;1.75;0.00;;;;;;;13.74;100.00;97916.05;1637152;85;21552;-49
2022/06/22 02:29:37;;;;;;;1.90;0.00;;;;;;;13.74;100.00;97916.05;1641177;85;21080;-52
2022/06/22 02:32:07;;;;;;;0.10;0.00;;;;;;;13.77;100.00;97911.73;1637597;85;21805;-48
2022/06/22 02:34:35;;;;;;;0.30;0.03;;;;;;;13.81;100.00;97908.59;1640168;85;21081;-52
2022/06/22 02:37:05;;;;;;;0.20;0.10;;;;;;;13.82;100.00;97902.20;1642603;85;21800;-51
2022/06/22 02:39:33;;;;;;;0.85;0.00;;;;;;;13.84;100.00;97903.42;1635321;85;21571;-53
2022/06/22 02:44:45;;;;;;;0.10;0.00;;;;;;;13.85;100.00;97907.84;1638282;85;22014;-48
2022/06/22 02:47:25;;;;;;;0.28;0.05;;;;;;;13.82;100.00;97912.16;1633444;85;21452;-54
2022/06/22 02:50:07;;;;;;;0.10;0.00;;;;;;;13.83;100.00;97913.88;1636442;85;21666;-50
2022/06/22 02:52:38;;;;;;;0.10;0.10;;;;;;;13.81;100.00;97915.86;1636580;85;21562;-48
2022/06/22 02:55:07;;;;;;;0.08;0.00;;;;;;;13.80;100.00;97915.00;1637478;85;21615;-51
2022/06/22 02:57:50;;;;;;;0.20;0.10;;;;;;;13.80;100.00;97914.14;1638067;85;21237;-51
2022/06/22 03:00:20;;;;;;;0.20;0.00;;;;;;;13.78;100.00;97916.16;1638864;85;21386;-49
2022/06/22 03:02:48;;;;;;;0.08;0.00;;;;;;;13.80;100.00;97910.08;1636445;85;20907;-47
2022/06/22 03:05:16;;;;;;;0.00;0.00;;;;;;;13.84;100.00;97907.48;1639785;85;21489;-49
2022/06/22 03:07:47;;;;;;;0.15;0.10;;;;;;;13.89;100.00;97913.31;1639101;85;20970;-49
2022/06/22 03:10:27;;;;;;;0.10;0.00;;;;;;;13.96;100.00;97911.26;1639304;85;21474;-50
2022/06/22 03:12:56;;;;;;;0.45;0.05;;;;;;;13.96;100.00;97912.61;1638536;85;21519;-50
2022/06/22 03:15:24;;;;;;;0.72;0.10;;;;;;;13.96;100.00;97912.61;1638792;85;21013;-48
2022/06/22 03:17:50;;;;;;;0.30;0.00;;;;;;;13.94;100.00;97909.71;1640060;85;21105;-53
2022/06/22 03:20:20;;;;;;;0.10;0.00;;;;;;;13.92;100.00;97911.69;1640447;85;21453;-48
2022/06/22 03:22:52;;;;;;;0.68;0.05;;;;;;;13.90;100.00;97912.32;1639350;85;21197;-49
2022/06/22 03:25:26;;;;;;;1.02;0.03;;;;;;;13.89;100.00;97909.25;1619144;85;20958;-48
2022/06/22 03:27:57;;;;;;;0.25;0.10;;;;;;;13.88;100.00;97902.12;1640231;85;21084;-50
2022/06/22 03:30:29;;;;;;;0.08;0.05;;;;;;;13.88;100.00;97909.75;1638982;85;21466;-49
2022/06/22 03:32:59;;;;;;;0.15;0.00;;;;;;;13.91;100.00;97912.19;1635791;85;21089;-48
2022/06/22 03:35:34;;;;;;;0.10;0.00;;;;;;;13.95;100.00;97914.13;1639087;85;21159;-52
2022/06/22 03:38:07;;;;;;;0.20;0.00;;;;;;;14.00;100.00;97919.96;1637390;85;21025;-54
2022/06/22 03:41:02;;;;;;;;;;;;;;;14.03;100.00;97925.10;1639855;85;20984;-47
2022/06/22 03:43:33;;;;;;;0.08;0.00;;;;;;;14.06;100.00;97929.36;1637544;85;20186;-50
2022/06/22 03:46:08;;;;;;;1.98;0.03;;;;;;;14.05;100.00;97927.64;1639581;85;21010;-49
2022/06/22 03:48:47;;;;;;;;;;;;;;;14.03;100.00;97927.81;1638742;85;20990;-55
2022/06/22 03:51:26;;;;;;;0.55;0.00;;;;;;;14.01;100.00;97926.59;1635404;85;20274;-48
2022/06/22 03:54:03;;;;;;;0.30;0.00;;;;;;;13.98;100.00;97915.18;1634989;85;21476;-50
2022/06/22 03:56:39;;;;;;;0.15;0.10;;;;;;;13.96;100.00;97923.92;1639219;85;21093;-48
2022/06/22 03:59:06;;;;;;;1.75;0.10;;;;;;;13.90;100.00;97925.84;1637265;85;21754;-53
2022/06/22 04:01:32;;;;;;;0.35;0.00;;;;;;;13.87;100.00;97931.02;1646035;85;21196;-54
2022/06/22 04:03:59;;;;;;;0.00;0.00;;;;;;;13.83;100.00;97920.14;1638763;85;21570;-52
2022/06/22 04:06:35;;;;;;;0.15;0.03;;;;;;;13.84;100.00;97927.76;1637237;85;21133;-51
2022/06/22 04:09:07;;;;;;;0.17;0.00;;;;;;;13.87;100.00;97922.05;1639083;85;21549;-49
2022/06/22 04:11:43;;;;;;;0.60;0.00;;;;;;;13.86;100.00;97925.78;1636419;85;21103;-53
2022/06/22 04:14:14;;;;;;;0.42;0.08;;;;;;;13.86;100.00;97924.42;1638119;85;21212;-50
2022/06/22 04:16:45;;;;;;;0.20;0.10;;;;;;;13.85;100.00;97925.42;1635730;85;21100;-53
2022/06/22 04:19:28;;;;;;;0.20;0.10;;;;;;;13.79;100.00;97926.80;1636354;85;21420;-53
2022/06/22 04:22:03;;;;;;;0.00;0.00;;;;;;;13.74;100.00;97926.87;1597269;85;21092;-52
2022/06/22 04:24:34;;;;;;;0.10;0.08;;;;;;;13.71;100.00;97927.98;1633979;84;21071;-52
2022/06/22 04:27:15;;;;;;;0.00;0.00;;;;;;;13.69;100.00;97938.11;1634994;86;22010;-48
2022/06/22 04:30:02;;;;;;;0.37;0.08;;;;;;;13.68;100.00;97922.88;1638568;86;21080;-49
2022/06/22 04:32:46;;;;;;;0.05;0.00;;;;;;;13.69;100.00;97936.76;1634560;86;21105;-51
2022/06/22 04:35:43;;;;;;;0.15;0.00;;;;;;;13.71;100.00;97933.39;1634303;86;21117;-52
2022/06/22 04:38:19;;;;;;;0.23;0.10;;;;;;;13.74;100.00;97927.73;1638500;86;21154;-53
2022/06/22 04:41:00;;;;;;;0.13;0.10;;;;;;;13.77;100.00;97933.36;1634777;86;21125;-49
2022/06/22 04:43:27;;;;;;;0.10;0.10;;;;;;;13.79;100.00;97943.52;1635617;86;21136;-53
2022/06/22 04:45:54;;;;;;;0.50;0.05;;;;;;;13.81;100.00;97953.71;1638001;86;21184;-51
2022/06/22 04:48:41;;;;;;;0.25;0.00;;;;;;;13.82;100.00;97945.47;1639112;86;21108;-53
2022/06/22 04:51:14;;;;;;;1.35;0.20;;;;;;;13.81;100.00;97957.77;1635970;86;21583;-50
2022/06/22 04:53:45;;;;;;;0.08;0.00;;;;;;;13.79;100.00;97952.98;1639680;86;21642;-52
2022/06/22 04:56:16;;;;;;;2.22;0.10;;;;;;;13.79;100.00;97953.84;1636096;86;21074;-52
2022/06/22 04:58:54;;;;;;;0.10;0.05;;;;;;;13.83;100.00;97955.30;1637590;86;21097;-53
2022/06/22 05:01:57;;;;;;;0.20;0.10;;;;;;;13.88;100.00;97961.62;1635554;86;21104;-49
2022/06/22 05:04:36;;;;;;;0.30;0.10;;;;;;;13.88;100.00;97969.25;1635075;86;21104;-50
2022/06/22 05:07:30;;;;;;;0.23;0.10;;;;;;;13.85;100.00;97964.63;1610970;86;21875;-53
2022/06/22 05:10:14;;;;;;;0.00;0.00;;;;;;;13.86;100.00;97969.05;1577686;86;21121;-51
2022/06/22 05:12:48;;;;;;;0.80;0.10;;;;;;;13.91;100.00;97966.77;1639804;86;21093;-49
2022/06/22 05:15:20;;;;;;;;;;;;;;;13.97;100.00;97956.25;1645078;86;21801;-46
2022/06/22 05:17:47;;;;;;;0.10;0.10;;;;;;;14.03;100.00;97950.80;1639697;86;20276;-53
2022/06/22 05:20:39;;;;;;;0.62;0.17;;;;;;;14.13;100.00;97955.71;1634370;86;21558;-52
2022/06/22 05:23:06;;;;;;;3.92;0.10;;;;;;;14.42;100.00;97945.46;1635086;86;21669;-50
2022/06/22 05:25:33;;;;;;;0.53;0.10;;;;;;;14.42;100.00;97945.46;1616821;85;21467;-52
2022/06/22 05:28:13;;;;;;;0.75;0.10;;;;;;;14.53;100.00;97949.40;1643297;85;21194;-51
2022/06/22 05:30:56;;;;;;;0.20;0.10;;;;;;;14.62;100.00;97956.67;1639718;85;21095;-51
2022/06/22 05:33:23;;;;;;;1.12;0.20;;;;;;;14.68;100.00;97950.67;1638531;85;21159;-53
2022/06/22 05:35:58;;;;;;;1.05;0.10;;;;;;;14.74;100.00;97943.31;1644887;85;21076;-53
2022/06/22 05:38:24;;;;;;;1.67;0.10;;;;;;;14.74;100.00;97950.09;1642964;85;21639;-53
2022/06/22 05:40:51;;;;;;;0.10;0.05;;;;;;;14.71;100.00;97949.05;1643488;85;21159;-48
2022/06/22 05:43:18;;;;;;;0.57;0.10;;;;;;;14.67;100.00;97944.89;1644621;85;21134;-49
2022/06/22 05:45:47;;;;;;;2.90;0.00;;;;;;;14.65;100.00;97946.89;1641849;85;21120;-53
2022/06/22 05:48:19;;;;;;;0.20;0.10;;;;;;;14.61;100.00;97950.40;1644132;85;21148;-48
2022/06/22 05:50:53;;;;;;;2.62;0.10;;;;;;;14.57;100.00;97942.19;1640140;85;21111;-49
2022/06/22 05:53:31;;;;;;;1.15;0.35;;;;;;;14.57;100.00;97943.54;1644625;85;22388;-52
2022/06/22 05:56:42;;;;;;;0.20;0.10;;;;;;;14.57;100.00;97945.39;1641383;85;21067;-53
2022/06/22 05:59:26;;;;;;;0.00;0.00;;;;;;;14.55;100.00;97940.61;1643063;85;21256;-50
2022/06/22 06:02:01;;;;;;;0.85;0.10;;;;;;;14.51;100.00;97947.32;1645145;85;21461;-51
2022/06/22 06:04:44;;;;;;;0.40;0.08;;;;;;;14.47;100.00;97955.36;1640456;85;21515;-53
2022/06/22 06:07:25;;;;;;;0.17;0.10;;;;;;;14.49;100.00;97954.72;1621675;85;21691;-51
2022/06/22 06:09:52;;;;;;;0.30;0.10;;;;;;;14.54;100.00;97960.09;1640107;85;21144;-54
2022/06/22 06:12:27;;;;;;;0.20;0.10;;;;;;;14.59;100.00;97958.30;1644993;85;21433;-53
2022/06/22 06:14:54;;;;;;;0.85;0.50;;;;;;;14.66;100.00;97958.94;1645371;85;21424;-51
2022/06/22 06:17:30;;;;;;;1.65;0.20;;;;;;;14.73;100.00;97958.71;1646640;85;21404;-50
2022/06/22 06:19:57;;;;;;;0.20;0.10;;;;;;;14.79;100.00;97960.51;1649140;85;21554;-53
2022/06/22 06:22:24;;;;;;;0.42;0.10;;;;;;;14.79;100.00;97961.37;1648820;85;20957;-53
2022/06/22 06:27:41;;;;;;;0.10;0.10;;;;;;;14.79;100.00;97969.99;1636988;85;21447;-51
2022/06/22 06:30:34;;;;;;;0.20;0.08;;;;;;;14.68;100.00;97973.19;1638212;85;20927;-49
2022/06/22 06:33:31;;;;;;;0.33;0.10;;;;;;;14.63;100.00;97977.34;1637972;85;21518;-53
2022/06/22 06:36:26;;;;;;;0.23;0.10;;;;;;;14.58;100.00;97966.05;1634130;85;21085;-50
2022/06/22 06:39:07;;;;;;;0.20;0.10;;;;;;;14.59;100.00;97970.48;1638092;85;21871;-51
2022/06/22 06:42:03;;;;;;;0.42;0.10;;;;;;;14.59;100.00;97969.12;1636408;85;21082;-53
2022/06/22 06:44:18;;;;;;;2.05;0.10;;;;;;;14.60;100.00;97980.31;1636419;85;21380;-54
2022/06/22 06:46:51;;;;;;;0.30;0.10;;;;;;;14.61;100.00;97979.33;1637574;85;20966;-50
2022/06/22 06:49:28;;;;;;;0.10;0.10;;;;;;;14.61;100.00;97973.41;1635669;85;20931;-50
2022/06/22 06:52:01;;;;;;;0.17;0.10;;;;;;;14.64;100.00;97968.19;1635833;85;21085;-50
2022/06/22 06:54:41;;;;;;;0.95;0.10;;;;;;;14.66;100.00;97968.41;1638455;85;21402;-50
2022/06/22 06:57:17;;;;;;;0.45;0.10;;;;;;;14.71;100.00;97980.19;1618878;85;21255;-51
2022/06/22 06:59:48;;;;;;;0.10;0.10;;;;;;;14.78;100.00;97986.73;1642457;85;22187;-50
2022/06/22 07:02:20;;;;;;;2.75;0.17;;;;;;;14.83;100.00;97988.50;1638965;85;21096;-53
2022/06/22 07:04:46;;;;;;;0.65;0.40;;;;;;;14.86;100.00;97984.66;1632631;85;21161;-51
2022/06/22 07:07:34;;;;;;;0.23;0.20;;;;;;;14.84;100.00;97980.73;1632754;85;21093;-53
2022/06/22 07:10:05;;;;;;;0.30;0.13;;;;;;;14.87;100.00;97984.52;1639339;85;21081;-51
2022/06/22 07:12:59;;;;;;;1.07;0.20;;;;;;;14.93;100.00;97977.67;1641778;85;21117;-49
2022/06/22 07:15:35;;;;;;;0.10;0.10;;;;;;;14.96;100.00;97976.89;1639169;85;21080;-53
2022/06/22 07:18:15;;;;;;;0.98;0.10;;;;;;;15.02;100.00;97974.95;1636862;85;22062;-50
2022/06/22 07:20:44;;;;;;;1.20;0.10;;;;;;;15.12;100.00;97977.66;1635723;85;21180;-51
2022/06/22 07:23:16;;;;;;;1.00;0.20;;;;;;;15.24;100.00;97990.52;1641457;85;21073;-52
2022/06/22 07:25:49;;;;;;;0.20;0.10;;;;;;;15.30;100.00;97984.54;1639470;85;21090;-50
2022/06/22 07:28:26;;;;;;;0.33;0.10;;;;;;;15.32;100.00;97988.79;1642658;86;21033;-50
2022/06/22 07:30:57;;;;;;;0.10;0.10;;;;;;;15.35;100.00;97980.87;1642911;86;21169;-50
2022/06/22 07:33:44;;;;;;;0.20;0.10;;;;;;;15.39;100.00;97980.45;1639981;86;21152;-52
2022/06/22 07:36:38;;;;;;;2.17;1.12;;;;;;;15.43;100.00;97980.99;1639070;86;21506;-51
2022/06/22 07:39:18;;;;;;;0.10;0.10;;;;;;;15.43;100.00;97980.99;1641589;86;21646;-51
2022/06/22 07:41:45;;;;;;;0.20;0.10;;;;;;;15.43;100.00;97980.49;1644184;86;21084;-55
2022/06/22 07:44:21;;;;;;;0.10;0.10;;;;;;;15.48;100.00;97986.31;1640607;86;21149;-52
2022/06/22 07:47:00;;;;;;;0.20;0.10;;;;;;;15.54;100.00;97990.85;1639432;86;21077;-53
2022/06/22 07:49:51;;;;;;;2.67;0.17;;;;;;;15.60;100.00;97992.47;1648313;86;21116;-51
2022/06/22 07:52:26;;;;;;;0.10;0.10;;;;;;;15.65;100.00;97993.39;1640014;86;21104;-50
2022/06/22 07:54:58;;;;;;;0.17;0.10;;;;;;;15.66;100.00;97991.86;1642575;86;22292;-52
2022/06/22 07:57:52;;;;;;;0.62;0.10;;;;;;;15.63;100.00;98000.31;1639873;86;21117;-51
2022/06/22 08:00:20;;;;;;;0.75;0.20;;;;;;;15.58;100.00;98001.23;1642243;86;21082;-50
2022/06/22 08:03:01;;;;;;;0.50;0.20;;;;;;;15.58;100.00;97999.03;1643847;86;21105;-48
2022/06/22 08:05:33;;;;;;;0.20;0.10;;;;;;;15.59;100.00;98002.95;1640711;86;21029;-53
2022/06/22 08:08:28;;;;;;;0.20;0.10;;;;;;;15.62;100.00;97997.25;1646032;86;21097;-52
2022/06/22 08:11:25;;;;;;;0.20;0.10;;;;;;;15.65;100.00;97994.75;1642669;86;21198;-50
2022/06/22 08:14:08;;;;;;;0.95;0.10;;;;;;;15.72;100.00;97998.57;1643169;86;21121;-50
2022/06/22 08:16:45;;;;;;;0.20;0.10;;;;;;;15.82;100.00;97994.80;1647061;86;21076;-54
2022/06/22 08:19:11;;;;;;;0.40;0.20;;;;;;;15.92;100.00;97998.83;1621717;86;21088;-50
2022/06/22 08:21:47;;;;;;;0.20;0.10;;;;;;;16.00;100.00;97992.14;1641856;86;21103;-53
2022/06/22 08:24:15;;;;;;;1.45;0.20;;;;;;;16.09;100.00;97993.10;1640122;86;21651;-51
2022/06/22 08:26:41;;;;;;;0.88;0.10;;;;;;;16.22;100.00;97990.40;1642923;85;21077;-50
2022/06/22 08:29:08;;;;;;;0.75;0.20;;;;;;;16.36;100.00;98003.95;1648307;85;21139;-50
2022/06/22 08:33:44;;;;;;;1.60;0.10;;;;;;;16.50;100.00;97991.73;1781345;78;27991;-52
2022/06/22 08:36:19;;;;;;;0.50;0.20;;;;;;;16.51;100.00;98007.84;1748559;80;21041;-51
2022/06/22 08:38:49;;;;;;;;;;;;;;;16.54;100.00;98007.55;1751054;80;21842;-48
2022/06/22 08:41:45;;;;;;;0.20;0.10;;;;;;;16.58;100.00;98017.12;1744303;80;20132;-53
2022/06/22 08:44:29;;;;;;;0.20;0.20;;;;;;;16.62;100.00;98010.38;1746425;80;21472;-52
2022/06/22 08:47:23;;;;;;;0.20;0.20;;;;;;;16.73;100.00;98017.47;1742582;80;20972;-49
2022/06/22 08:50:13;;;;;;;0.55;0.20;;;;;;;16.87;100.00;98012.84;1693667;82;21096;-52
2022/06/22 08:53:17;;;;;;;3.15;0.15;;;;;;;16.97;100.00;98019.55;1708955;81;21156;-53
2022/06/22 08:56:38;;;;;;;0.30;0.20;;;;;;;17.01;100.00;98013.64;1695343;82;21496;-54
2022/06/22 08:59:22;;;;;;;0.40;0.20;;;;;;;17.03;100.00;98013.48;1675001;84;21472;-51
2022/06/22 09:02:34;;;;;;;0.95;0.10;;;;;;;17.02;100.00;98017.21;1672842;84;21668;-53
2022/06/22 09:05:14;;;;;;;0.20;0.20;;;;;;;17.11;100.00;98020.86;1671645;84;21476;-53
2022/06/22 09:07:59;;;;;;;0.33;0.10;;;;;;;17.12;100.00;98020.70;1632152;84;21162;-51
2022/06/22 09:10:57;;;;;;;0.37;0.10;;;;;;;17.17;100.00;98009.38;1684528;83;21093;-51
2022/06/22 09:13:43;;;;;;;0.42;0.10;;;;;;;17.29;100.00;98009.45;1687576;83;21066;-48
2022/06/22 09:16:41;;;;;;;0.10;0.10;;;;;;;17.45;100.00;98016.38;1688562;83;21065;-54
2022/06/22 09:19:52;;;;;;;0.33;0.20;;;;;;;17.50;100.00;98022.72;1688286;83;21052;-52
2022/06/22 09:22:42;;;;;;;0.95;0.15;;;;;;;17.39;100.00;98026.03;1685158;83;21575;-51
2022/06/22 09:25:47;;;;;;;0.13;0.10;;;;;;;17.28;100.00;98027.64;1688217;83;21094;-55
2022/06/22 09:28:35;;;;;;;0.20;0.10;;;;;;;17.22;100.00;98024.20;1685309;83;21116;-51
2022/06/22 09:31:40;;;;;;;0.13;0.10;;;;;;;17.14;100.00;98025.48;1672265;83;21535;-53
2022/06/22 09:34:23;;;;;;;0.37;0.10;;;;;;;17.06;100.00;98022.70;1685472;83;21028;-52
2022/06/22 09:37:12;;;;;;;0.45;0.10;;;;;;;17.03;100.00;98017.56;1643182;83;21170;-52
2022/06/22 09:39:54;;;;;;;1.95;0.17;;;;;;;17.09;100.00;98012.88;1682271;83;21136;-52
2022/06/22 09:43:00;;;;;;;0.30;0.20;;;;;;;17.24;100.00;98018.10;1684352;83;21800;-56
2022/06/22 09:45:51;;;;;;;0.20;0.10;;;;;;;17.43;100.00;98017.56;1689664;83;21381;-54
2022/06/22 09:48:34;;;;;;;0.20;0.20;;;;;;;17.66;100.00;98025.07;1688532;83;21028;-52
2022/06/22 09:51:21;;;;;;;0.40;0.10;;;;;;;17.79;100.00;98025.98;1687034;83;21150;-51
2022/06/22 09:57:17;;;;;;;0.17;0.17;;;;;;;17.96;100.00;98018.26;1688570;83;21634;-53
2022/06/22 10:00:10;;;;;;;0.40;0.20;;;;;;;18.14;100.00;98016.31;1691834;83;21020;-52
2022/06/22 10:03:01;;;;;;;0.50;0.20;;;;;;;18.31;100.00;98010.93;1668646;83;21028;-56
2022/06/22 10:05:54;;;;;;;0.35;0.10;;;;;;;18.43;100.00;98017.80;1691980;83;21247;-51
2022/06/22 10:09:00;;;;;;;0.95;0.30;;;;;;;18.44;100.00;98017.64;1684978;83;21060;-53
2022/06/22 10:11:49;;;;;;;0.47;0.17;;;;;;;18.46;100.00;98023.75;1674145;84;21361;-51
2022/06/22 10:14:41;;;;;;;0.40;0.20;;;;;;;18.45;100.00;98018.49;1677069;84;21130;-50
2022/06/22 10:17:46;;;;;;;1.40;0.10;;;;;;;18.48;100.00;98015.41;1672211;84;21045;-53
2022/06/22 10:21:02;;;;;;;0.83;0.10;;;;;;;18.56;100.00;98017.31;1690718;83;21139;-54
2022/06/22 10:24:00;;;;;;;0.30;0.17;;;;;;;18.67;100.00;98027.44;1688148;83;21032;-54
2022/06/22 10:27:00;;;;;;;0.82;0.10;;;;;;;18.68;100.00;98035.10;1686415;83;21065;-53
2022/06/22 10:29:47;;;;;;;0.20;0.10;;;;;;;18.60;100.00;98033.21;1684543;83;21077;-53
2022/06/22 10:32:38;;;;;;;0.20;0.20;;;;;;;18.49;100.00;98027.52;1685564;83;21798;-55
2022/06/22 10:35:26;;;;;;;0.20;0.20;;;;;;;18.41;100.00;98030.72;1678243;83;21244;-53
2022/06/22 10:38:13;;;;;;;0.57;0.20;;;;;;;18.34;100.00;98034.62;1675406;84;21085;-53
2022/06/22 10:47:53;;;;;;;0.82;0.17;;;;;;;18.35;100.00;98079.05;1621199;84;21710;-51
2022/06/22 10:50:50;;;;;;;0.90;0.17;;;;;;;18.23;100.00;98090.73;1679532;83;21437;-54
2022/06/22 10:53:58;;;;;;;0.30;0.17;;;;;;;17.96;100.00;98090.39;1715429;81;21596;-54
2022/06/22 10:56:43;;;;;;;0.20;0.20;;;;;;;17.69;100.00;98091.94;1711800;81;21038;-52
2022/06/22 10:59:33;;;;;;;2.50;0.20;;;;;;;17.44;100.00;98109.04;1713612;81;20995;-53
2022/06/22 11:02:41;;;;;;;0.50;0.20;;;;;;;17.20;100.00;98106.42;1713469;81;21069;-52
2022/06/22 11:05:16;;;;;;;0.40;0.20;;;;;;;17.05;100.00;98103.04;1713930;81;21271;-52
2022/06/22 11:08:05;;;;;;;0.85;0.23;;;;;;;16.95;100.00;98104.46;1675821;83;21033;-54
2022/06/22 11:11:13;;;;;;;0.42;0.23;;;;;;;16.95;100.00;98101.75;1673627;83;21030;-54
2022/06/22 11:14:03;;;;;;;1.50;0.20;;;;;;;17.05;100.00;98098.45;1679555;83;21086;-54
2022/06/22 11:16:47;;;;;;;0.37;0.20;;;;;;;17.17;100.00;98101.31;1644040;85;21099;-54
2022/06/22 11:19:53;;;;;;;1.17;0.40;;;;;;;17.24;100.00;98094.74;1667502;84;21577;-50
2022/06/22 11:22:35;;;;;;;;;;;;;;;17.34;100.00;98092.80;1657754;85;21045;-54
2022/06/22 11:31:34;;;;;;;0.30;0.20;;;;;;;17.75;100.00;98094.87;1664329;84;21577;-55
2022/06/22 11:34:15;;;;;;;0.35;0.20;;;;;;;17.84;100.00;98095.78;1659966;84;21108;-54
2022/06/22 11:37:08;;;;;;;0.20;0.20;;;;;;;17.89;100.00;98105.67;1671317;84;21057;-55
2022/06/22 11:40:07;;;;;;;0.20;0.13;;;;;;;17.94;100.00;98107.93;1670763;84;21094;-51
2022/06/22 11:43:00;;;;;;;0.45;0.20;;;;;;;18.00;100.00;98101.33;1672912;84;21074;-50
2022/06/22 11:45:50;;;;;;;2.05;0.20;;;;;;;18.04;100.00;98105.42;1671350;84;21122;-53
2022/06/22 11:48:31;;;;;;;0.20;0.20;;;;;;;18.05;100.00;98105.77;1670099;84;21118;-55
2022/06/22 11:51:31;;;;;;;1.40;0.15;;;;;;;18.03;100.00;98123.30;1672234;84;21129;-51
2022/06/22 11:54:41;;;;;;;0.30;0.10;;;;;;;17.94;100.00;98121.03;1672726;84;21065;-51
2022/06/22 11:57:37;;;;;;;0.10;0.10;;;;;;;17.89;100.00;98117.91;1670746;84;21144;-52
2022/06/22 12:00:18;;;;;;;1.25;0.10;;;;;;;17.89;100.00;98115.70;1717838;81;21160;-53
2022/06/22 12:03:42;;;;;;;3.90;0.10;;;;;;;17.99;100.00;98112.38;1683721;83;21139;-53
2022/06/22 12:07:01;;;;;;;1.35;0.10;;;;;;;18.12;100.00;98116.87;1718652;81;21054;-52
2022/06/22 12:09:46;;;;;;;1.95;0.20;;;;;;;18.26;100.00;98107.27;1719987;81;21113;-52
2022/06/22 12:12:36;;;;;;;0.25;0.10;;;;;;;18.40;100.00;98111.59;1678364;83;21137;-53
2022/06/22 12:15:29;;;;;;;1.27;0.10;;;;;;;18.47;100.00;98106.33;1711722;81;21089;-51
2022/06/22 12:18:25;;;;;;;0.70;0.15;;;;;;;18.45;100.00;98107.03;1707167;81;21385;-52
2022/06/22 12:21:31;;;;;;;0.20;0.17;;;;;;;18.38;100.00;98114.12;1682548;83;20887;-52
2022/06/22 12:24:12;;;;;;;0.70;0.20;;;;;;;18.28;100.00;98133.33;1715875;81;20951;-53
2022/06/22 12:27:16;;;;;;;0.93;0.20;;;;;;;18.16;100.00;98142.77;1711837;81;21199;-52
2022/06/22 12:30:18;;;;;;;1.02;0.30;;;;;;;17.99;100.00;98164.95;1714448;81;21476;-55
2022/06/22 12:33:15;;;;;;;1.00;0.30;;;;;;;17.43;100.00;98172.61;1718000;81;21212;-53
2022/06/22 12:36:07;;;;;;;4.30;0.30;;;;;;;16.85;100.00;98168.88;1675843;84;21029;-53
2022/06/22 12:38:42;;;;;;;6.70;0.23;;;;;;;16.51;100.00;98157.72;1673933;84;20950;-51
2022/06/22 12:41:19;;;;;;;2.35;0.17;;;;;;;16.34;100.00;98151.22;1703335;82;20963;-52
2022/06/22 12:44:10;;;;;;;3.72;0.20;;;;;;;16.26;100.00;98151.97;1707275;82;20918;-52
2022/06/22 12:46:54;;;;;;;2.10;0.20;;;;;;;16.22;100.00;98156.00;1707235;82;21527;-53
2022/06/22 12:49:50;;;;;;;0.57;0.20;;;;;;;16.25;100.00;98150.25;1691394;82;21070;-50
2022/06/22 12:52:22;;;;;;;8.70;0.17;;;;;;;16.37;100.00;98152.30;1713585;82;20876;-53
2022/06/22 12:55:01;;;;;;;0.37;0.20;;;;;;;16.53;100.00;98148.43;1709897;82;20939;-52
2022/06/22 12:57:35;;;;;;;0.25;0.10;;;;;;;16.73;100.00;98145.66;1709190;82;20974;-50
2022/06/22 13:00:07;;;;;;;4.17;0.30;;;;;;;16.93;100.00;98147.23;1675014;84;21996;-51
2022/06/22 13:02:36;;;;;;;0.60;0.20;;;;;;;17.10;100.00;98134.17;1702670;82;21074;-50